Time;durP1;ratioP1;P1;durP2;ratioP2;P2;SDS_P1;SDS_P2;PMS_P1;PMS_P2;Temp;Humidity;BMP_temperature;BMP_pressure;BME280_temperature;BME280_humidity;BME280_pressure;Samples;Min_cycle;Max_cycle;Signal;HPM_P1;HPM_P2
2023/04/13 00:01:28;;;;;;;2.35;1.30;;;18.90;59.60;;;;;;5035564;28;20033;-59
2023/04/13 00:03:53;;;;;;;1.73;1.35;;;18.90;59.70;;;;;;5036805;28;20045;-64
2023/04/13 00:06:19;;;;;;;2.25;1.20;;;18.90;59.70;;;;;;5034786;28;20082;-64
2023/04/13 00:08:45;;;;;;;1.40;1.00;;;18.90;59.70;;;;;;5039121;28;20495;-63
2023/04/13 00:11:12;;;;;;;4.45;1.75;;;18.90;59.60;;;;;;5039909;28;20481;-64
2023/04/13 00:13:41;;;;;;;1.42;1.02;;;18.90;59.60;;;;;;5035968;28;20025;-64
2023/04/13 00:16:11;;;;;;;2.33;1.13;;;18.80;59.50;;;;;;5037173;28;20379;-63
2023/04/13 00:18:36;;;;;;;2.35;1.30;;;18.80;59.60;;;;;;5035825;28;20128;-64
2023/04/13 00:21:02;;;;;;;1.52;1.08;;;18.90;59.60;;;;;;5033443;28;20061;-64
2023/04/13 00:23:27;;;;;;;2.25;1.02;;;18.80;59.60;;;;;;5032414;28;20106;-64
2023/04/13 00:25:53;;;;;;;2.88;1.15;;;18.90;59.50;;;;;;5029898;28;20500;-63
2023/04/13 00:28:18;;;;;;;2.03;1.10;;;18.80;59.60;;;;;;5034465;28;20038;-59
2023/04/13 00:30:44;;;;;;;2.78;1.10;;;18.90;59.60;;;;;;5033263;28;20030;-64
2023/04/13 00:33:09;;;;;;;1.95;0.93;;;18.80;59.50;;;;;;5038180;28;20036;-64
2023/04/13 00:35:35;;;;;;;2.22;1.08;;;18.90;59.60;;;;;;5037034;28;20037;-60
2023/04/13 00:38:03;;;;;;;2.13;1.23;;;18.80;59.50;;;;;;5038978;28;20079;-64
2023/04/13 00:40:29;;;;;;;1.60;0.95;;;18.80;59.50;;;;;;5038567;28;20052;-64
2023/04/13 00:42:55;;;;;;;2.47;1.30;;;18.80;59.50;;;;;;5042657;28;20033;-64
2023/04/13 00:45:20;;;;;;;2.22;1.08;;;18.80;59.60;;;;;;5038368;28;20226;-65
2023/04/13 00:47:47;;;;;;;2.63;1.30;;;18.80;59.50;;;;;;5039949;28;20029;-64
2023/04/13 00:50:17;;;;;;;2.22;1.23;;;18.90;59.60;;;;;;5040316;28;20453;-58
2023/04/13 00:52:43;;;;;;;2.05;1.05;;;18.90;59.40;;;;;;5035037;28;20340;-63
2023/04/13 00:55:10;;;;;;;3.17;1.10;;;18.90;59.20;;;;;;5040249;28;20025;-63
2023/04/13 00:57:39;;;;;;;1.80;1.10;;;19.00;59.20;;;;;;5040000;28;20025;-64
2023/04/13 01:00:08;;;;;;;1.88;0.98;;;19.10;58.80;;;;;;5045149;28;20511;-64
2023/04/13 01:02:33;;;;;;;1.85;0.90;;;19.20;58.40;;;;;;5039784;28;20385;-65
2023/04/13 01:04:59;;;;;;;2.15;1.10;;;19.40;58.00;;;;;;5040133;28;20036;-59
2023/04/13 01:07:49;;;;;;;1.08;0.75;;;19.50;57.60;;;;;;5040320;28;20033;-60
2023/04/13 01:10:40;;;;;;;1.67;0.95;;;19.50;57.30;;;;;;5040797;28;20020;-64
2023/04/13 01:13:20;;;;;;;1.67;0.80;;;19.70;57.00;;;;;;5041177;28;20104;-63
2023/04/13 01:16:01;;;;;;;1.23;0.60;;;19.70;56.70;;;;;;5040396;28;20040;-64
2023/04/13 01:18:28;;;;;;;2.45;0.90;;;19.80;56.60;;;;;;5037125;28;20032;-63
2023/04/13 01:20:54;;;;;;;1.38;0.80;;;19.90;56.40;;;;;;5043111;28;20094;-64
2023/04/13 01:23:42;;;;;;;1.85;0.90;;;20.00;56.40;;;;;;5036773;28;20045;-63
2023/04/13 01:26:08;;;;;;;1.25;0.88;;;20.00;56.20;;;;;;5037875;28;20537;-64
2023/04/13 01:28:36;;;;;;;1.60;0.70;;;20.00;56.00;;;;;;5038967;28;20034;-64
2023/04/13 01:31:05;;;;;;;1.58;0.90;;;20.10;56.10;;;;;;5041796;28;20037;-64
2023/04/13 01:33:32;;;;;;;2.25;0.77;;;20.10;56.10;;;;;;5040969;28;20055;-64
2023/04/13 01:35:59;;;;;;;1.05;0.60;;;20.10;56.00;;;;;;5041216;28;20036;-64
2023/04/13 01:38:25;;;;;;;1.45;0.82;;;20.10;56.10;;;;;;5040848;28;20081;-64
2023/04/13 01:40:50;;;;;;;1.83;0.68;;;20.10;56.20;;;;;;5041910;28;20403;-63
2023/04/13 01:43:18;;;;;;;2.17;0.80;;;20.10;56.30;;;;;;5038854;28;20100;-64
2023/04/13 01:46:05;;;;;;;1.30;0.63;;;20.00;56.20;;;;;;5039790;28;20118;-64
2023/04/13 01:48:48;;;;;;;0.98;0.70;;;20.00;56.40;;;;;;5036404;28;20045;-64
2023/04/13 01:51:20;;;;;;;1.80;0.80;;;20.00;56.40;;;;;;5037258;28;20483;-63
2023/04/13 01:54:20;;;;;;;1.38;0.75;;;19.90;56.50;;;;;;5033816;28;20038;-64
2023/04/13 01:56:47;;;;;;;1.33;0.75;;;20.00;57.10;;;;;;5009778;28;20087;-64
2023/04/13 01:59:12;;;;;;;2.83;1.20;;;19.90;56.50;;;;;;5039807;28;20452;-63
2023/04/13 02:01:39;;;;;;;2.22;0.70;;;19.90;56.60;;;;;;5041280;28;20037;-64
2023/04/13 02:04:06;;;;;;;1.83;0.90;;;19.90;56.60;;;;;;5039442;28;20244;-65
2023/04/13 02:06:32;;;;;;;1.10;0.80;;;19.80;56.60;;;;;;5043311;28;20106;-64
2023/04/13 02:08:58;;;;;;;1.20;0.88;;;19.80;56.70;;;;;;5040326;28;20500;-63
2023/04/13 02:11:24;;;;;;;2.10;0.52;;;19.80;56.80;;;;;;5038136;28;20033;-64
2023/04/13 02:13:50;;;;;;;2.63;0.70;;;19.80;56.80;;;;;;5037309;28;20064;-63
2023/04/13 02:16:16;;;;;;;0.77;0.45;;;19.80;56.90;;;;;;5038578;28;20508;-63
2023/04/13 02:18:41;;;;;;;1.83;0.70;;;19.70;56.90;;;;;;5033838;28;20507;-63
2023/04/13 02:21:08;;;;;;;0.60;0.50;;;19.70;57.00;;;;;;5036873;28;20090;-64
2023/04/13 02:23:35;;;;;;;2.53;0.90;;;19.70;57.10;;;;;;5030498;28;20021;-63
2023/04/13 02:26:01;;;;;;;1.95;0.93;;;19.60;57.10;;;;;;5038564;28;20601;-64
2023/04/13 02:28:28;;;;;;;0.47;0.47;;;19.60;57.10;;;;;;5034772;28;20040;-63
2023/04/13 02:30:54;;;;;;;1.20;1.10;;;19.60;57.20;;;;;;5038562;28;20033;-64
2023/04/13 02:33:20;;;;;;;5.65;0.80;;;19.60;57.20;;;;;;5038937;28;20025;-64
2023/04/13 02:35:46;;;;;;;1.70;0.80;;;19.60;57.30;;;;;;5037478;28;20120;-62
2023/04/13 02:38:11;;;;;;;1.70;0.93;;;19.50;57.20;;;;;;5038970;28;20448;-63
2023/04/13 02:40:37;;;;;;;1.02;0.57;;;19.50;57.30;;;;;;5036935;28;20039;-64
2023/04/13 02:43:04;;;;;;;4.55;0.75;;;19.50;57.40;;;;;;5036921;28;20169;-64
2023/04/13 02:45:30;;;;;;;1.38;0.80;;;19.50;57.40;;;;;;5037539;28;20029;-64
2023/04/13 02:47:56;;;;;;;0.80;0.50;;;19.40;57.40;;;;;;5035383;28;20132;-64
2023/04/13 02:50:21;;;;;;;1.08;0.68;;;19.40;57.40;;;;;;5032062;28;20059;-64
2023/04/13 02:52:47;;;;;;;1.67;0.60;;;19.40;57.50;;;;;;5037320;28;20025;-64
2023/04/13 02:55:12;;;;;;;0.90;0.60;;;19.40;57.50;;;;;;5035937;28;20104;-64
2023/04/13 02:57:41;;;;;;;1.30;0.70;;;19.40;57.60;;;;;;5035080;28;20051;-64
2023/04/13 03:00:10;;;;;;;0.70;0.40;;;19.30;57.50;;;;;;5038485;28;20488;-64
2023/04/13 03:02:36;;;;;;;1.30;0.50;;;19.30;57.50;;;;;;5038306;28;20076;-64
2023/04/13 03:05:04;;;;;;;1.80;0.47;;;19.30;57.60;;;;;;5040756;28;20151;-63
2023/04/13 03:07:34;;;;;;;1.20;0.65;;;19.30;57.60;;;;;;5037769;28;20041;-63
2023/04/13 03:10:03;;;;;;;0.75;0.50;;;19.30;57.60;;;;;;5036871;28;20041;-64
2023/04/13 03:12:30;;;;;;;0.65;0.50;;;19.20;57.60;;;;;;5037734;28;20029;-64
2023/04/13 03:14:55;;;;;;;1.45;0.47;;;19.20;57.60;;;;;;5035976;28;20037;-64
2023/04/13 03:17:20;;;;;;;0.65;0.40;;;19.20;57.70;;;;;;5032800;28;20115;-64
2023/04/13 03:19:47;;;;;;;0.68;0.47;;;19.20;57.70;;;;;;5036493;28;20044;-64
2023/04/13 03:22:13;;;;;;;1.10;0.40;;;19.20;57.70;;;;;;5037007;28;20618;-63
2023/04/13 03:24:38;;;;;;;1.75;0.50;;;19.20;57.80;;;;;;5039733;28;20503;-65
2023/04/13 03:27:04;;;;;;;0.85;0.40;;;19.20;57.80;;;;;;5031589;28;20040;-64
2023/04/13 03:29:30;;;;;;;1.05;0.43;;;19.10;57.80;;;;;;5037507;28;20091;-64
2023/04/13 03:31:56;;;;;;;1.05;0.40;;;19.10;57.80;;;;;;5038886;28;20132;-61
2023/04/13 03:34:21;;;;;;;2.00;0.70;;;19.10;57.90;;;;;;5039920;28;20116;-64
2023/04/13 03:36:47;;;;;;;0.82;0.40;;;19.10;57.90;;;;;;5038170;28;20028;-63
2023/04/13 03:39:13;;;;;;;0.55;0.50;;;19.10;58.00;;;;;;5034976;28;20033;-64
2023/04/13 03:41:39;;;;;;;2.05;0.60;;;19.10;58.00;;;;;;5034693;28;20551;-64
2023/04/13 03:44:06;;;;;;;0.80;0.55;;;19.00;58.00;;;;;;5036679;28;20401;-64
2023/04/13 03:46:32;;;;;;;2.30;0.45;;;19.00;58.10;;;;;;5031556;28;20704;-64
2023/04/13 03:48:57;;;;;;;2.55;0.77;;;19.00;58.10;;;;;;5037470;28;20108;-62
2023/04/13 03:51:23;;;;;;;1.77;0.47;;;19.00;58.10;;;;;;5034012;28;20036;-64
2023/04/13 03:53:48;;;;;;;1.45;0.50;;;19.00;58.20;;;;;;5039616;28;20411;-64
2023/04/13 03:56:14;;;;;;;2.22;0.60;;;19.00;58.20;;;;;;5032827;28;20037;-64
2023/04/13 03:58:40;;;;;;;1.13;0.60;;;19.00;58.20;;;;;;5038094;28;20490;-63
2023/04/13 04:01:09;;;;;;;1.63;0.60;;;19.00;58.30;;;;;;5038736;28;20514;-64
2023/04/13 04:03:34;;;;;;;0.60;0.40;;;18.90;58.20;;;;;;5035035;28;20028;-62
2023/04/13 04:06:00;;;;;;;0.77;0.40;;;18.90;58.30;;;;;;5036466;28;20033;-63
2023/04/13 04:08:26;;;;;;;0.68;0.50;;;18.90;58.30;;;;;;5034965;28;20033;-63
2023/04/13 04:10:52;;;;;;;1.73;0.60;;;18.90;58.30;;;;;;5037450;28;20439;-63
2023/04/13 04:13:17;;;;;;;1.98;0.60;;;18.90;58.40;;;;;;5036921;28;20036;-62
2023/04/13 04:15:42;;;;;;;1.10;0.45;;;18.90;58.40;;;;;;5029429;28;20120;-62
2023/04/13 04:18:09;;;;;;;0.75;0.45;;;18.90;58.40;;;;;;5035871;28;20048;-62
2023/04/13 04:20:34;;;;;;;0.47;0.40;;;18.90;58.40;;;;;;5038603;28;20039;-62
2023/04/13 04:23:00;;;;;;;0.60;0.40;;;18.90;58.40;;;;;;5036814;28;20033;-64
2023/04/13 04:25:26;;;;;;;2.67;0.55;;;18.90;58.30;;;;;;5037312;28;20338;-63
2023/04/13 04:27:56;;;;;;;0.50;0.50;;;18.90;58.30;;;;;;5040151;28;20500;-62
2023/04/13 04:30:23;;;;;;;0.77;0.30;;;18.90;58.20;;;;;;5036127;28;20511;-63
2023/04/13 04:32:51;;;;;;;0.80;0.40;;;19.10;57.80;;;;;;5037467;28;20079;-63
2023/04/13 04:35:19;;;;;;;0.80;0.30;;;19.20;57.50;;;;;;5037950;28;20155;-63
2023/04/13 04:37:48;;;;;;;0.60;0.40;;;19.40;56.90;;;;;;5033917;28;20021;-64
2023/04/13 04:40:14;;;;;;;0.80;0.30;;;19.50;56.50;;;;;;5035599;28;20483;-64
2023/04/13 04:42:41;;;;;;;1.30;0.52;;;19.60;56.20;;;;;;5035777;28;20127;-65
2023/04/13 04:45:07;;;;;;;0.60;0.30;;;19.80;56.00;;;;;;5031549;28;20044;-63
2023/04/13 04:47:40;;;;;;;0.82;0.60;;;19.90;55.70;;;;;;5031417;28;20095;-63
2023/04/13 04:50:09;;;;;;;2.20;0.60;;;19.90;55.40;;;;;;5034222;28;20569;-63
2023/04/13 04:52:36;;;;;;;1.15;0.65;;;20.00;55.20;;;;;;5029331;28;20037;-63
2023/04/13 04:55:02;;;;;;;0.98;0.40;;;20.10;55.10;;;;;;5037500;28;20427;-63
2023/04/13 04:57:27;;;;;;;0.57;0.43;;;20.20;55.00;;;;;;5037709;28;20040;-63
2023/04/13 04:59:52;;;;;;;1.02;0.40;;;20.20;54.80;;;;;;5037852;28;20104;-64
2023/04/13 05:02:18;;;;;;;0.95;0.30;;;20.30;54.80;;;;;;5037220;28;20033;-63
2023/04/13 05:04:44;;;;;;;0.55;0.38;;;20.20;54.80;;;;;;5037872;28;20033;-64
2023/04/13 05:07:09;;;;;;;0.25;0.25;;;20.30;54.90;;;;;;5033938;28;20021;-63
2023/04/13 05:09:37;;;;;;;1.13;0.57;;;20.20;55.00;;;;;;5035853;28;20056;-64
2023/04/13 05:12:03;;;;;;;0.95;0.20;;;20.20;54.90;;;;;;5037567;28;20094;-63
2023/04/13 05:14:29;;;;;;;1.25;0.38;;;20.20;55.00;;;;;;5033573;28;20392;-63
2023/04/13 05:16:54;;;;;;;4.13;0.50;;;20.20;55.80;;;;;;5034363;28;20578;-64
2023/04/13 05:19:20;;;;;;;2.70;0.60;;;20.10;55.20;;;;;;5037736;28;20380;-62
2023/04/13 05:21:45;;;;;;;1.90;0.68;;;20.20;55.60;;;;;;5033859;28;20263;-64
2023/04/13 05:24:11;;;;;;;3.92;0.40;;;20.20;55.80;;;;;;5040392;28;20021;-64
2023/04/13 05:26:36;;;;;;;1.77;0.45;;;20.30;55.80;;;;;;5035408;28;20037;-55
2023/04/13 05:29:03;;;;;;;1.63;0.60;;;20.30;55.70;;;;;;5038948;28;20048;-62
2023/04/13 05:31:28;;;;;;;4.68;1.60;;;20.30;55.60;;;;;;5040811;28;20463;-63
2023/04/13 05:33:54;;;;;;;6.88;2.00;;;20.30;55.60;;;;;;5040280;28;20032;-64
2023/04/13 05:36:20;;;;;;;6.07;2.13;;;20.30;55.80;;;;;;5033825;28;20127;-62
2023/04/13 05:38:45;;;;;;;6.00;2.50;;;20.20;55.80;;;;;;5035657;28;20072;-63
2023/04/13 05:41:11;;;;;;;7.38;2.78;;;20.20;55.90;;;;;;5041819;28;20115;-60
2023/04/13 05:43:37;;;;;;;4.72;2.83;;;20.20;56.00;;;;;;5035216;28;20132;-63
2023/04/13 05:46:02;;;;;;;5.43;2.90;;;20.10;56.00;;;;;;5040533;28;20052;-63
2023/04/13 05:48:28;;;;;;;8.98;3.88;;;20.10;56.10;;;;;;5038272;28;20033;-62
2023/04/13 05:50:57;;;;;;;7.05;3.40;;;20.10;56.20;;;;;;5037799;28;20511;-63
2023/04/13 05:53:23;;;;;;;5.55;3.47;;;20.10;56.30;;;;;;5031601;28;20294;-56
2023/04/13 05:55:48;;;;;;;6.53;3.40;;;20.00;56.30;;;;;;5039520;28;20025;-62
2023/04/13 05:58:14;;;;;;;8.82;3.67;;;20.00;56.40;;;;;;5042237;28;20313;-61
2023/04/13 06:00:40;;;;;;;5.78;3.47;;;20.00;56.40;;;;;;5040239;28;20048;-62
2023/04/13 06:03:06;;;;;;;7.15;3.85;;;19.90;56.50;;;;;;5040001;28;20375;-63
2023/04/13 06:05:34;;;;;;;8.18;3.47;;;19.90;56.50;;;;;;5039228;28;20044;-61
2023/04/13 06:07:59;;;;;;;5.40;3.33;;;19.80;56.60;;;;;;5034681;28;20051;-62
2023/04/13 06:10:25;;;;;;;7.18;3.00;;;19.80;56.50;;;;;;5036988;28;20496;-59
2023/04/13 06:12:52;;;;;;;8.05;2.75;;;19.80;56.60;;;;;;5036301;28;20096;-62
2023/04/13 06:15:19;;;;;;;9.98;3.10;;;19.80;56.60;;;;;;5035989;28;20021;-57
2023/04/13 06:17:45;;;;;;;7.10;2.50;;;19.80;56.70;;;;;;5034849;28;20054;-63
2023/04/13 06:20:11;;;;;;;4.32;2.38;;;19.70;56.60;;;;;;5035957;28;20090;-61
2023/04/13 06:22:37;;;;;;;4.40;2.67;;;19.70;56.70;;;;;;5032809;28;20025;-63
2023/04/13 06:25:02;;;;;;;5.07;2.35;;;19.70;56.70;;;;;;5039552;28;20064;-63
2023/04/13 06:27:28;;;;;;;4.68;2.35;;;19.60;56.70;;;;;;5038263;28;20040;-61
2023/04/13 06:29:55;;;;;;;4.28;2.63;;;19.60;56.70;;;;;;5039901;28;20033;-62
2023/04/13 06:32:21;;;;;;;6.80;3.20;;;19.60;56.70;;;;;;5035555;28;20123;-63
2023/04/13 06:34:46;;;;;;;8.10;3.08;;;19.60;56.80;;;;;;5037485;28;20116;-62
2023/04/13 06:37:12;;;;;;;12.85;4.57;;;19.60;56.90;;;;;;5034818;28;20553;-63
2023/04/13 06:39:37;;;;;;;8.88;3.58;;;19.60;56.90;;;;;;5035347;28;20049;-63
2023/04/13 06:42:03;;;;;;;6.50;3.25;;;19.60;57.00;;;;;;5035628;28;21019;-63
2023/04/13 06:44:29;;;;;;;8.43;3.10;;;19.50;57.70;;;;;;5039962;28;20047;-62
2023/04/13 06:46:55;;;;;;;4.82;3.08;;;19.50;57.30;;;;;;5038968;28;20453;-62
2023/04/13 06:49:20;;;;;;;8.20;2.95;;;19.60;57.40;;;;;;5035767;28;20025;-63
2023/04/13 06:51:46;;;;;;;6.63;3.05;;;19.60;57.50;;;;;;5038720;28;20516;-62
2023/04/13 06:54:12;;;;;;;7.30;2.67;;;19.60;57.40;;;;;;5039953;28;20045;-62
2023/04/13 06:56:37;;;;;;;11.95;3.80;;;19.60;57.40;;;;;;5037576;28;20087;-62
2023/04/13 06:59:03;;;;;;;11.57;5.18;;;19.70;57.70;;;;;;5041739;28;20044;-62
2023/04/13 07:01:29;;;;;;;13.43;4.93;;;19.60;57.80;;;;;;5037074;28;20037;-61
2023/04/13 07:03:55;;;;;;;13.98;5.68;;;19.70;58.10;;;;;;5036936;28;20120;-61
2023/04/13 07:06:21;;;;;;;11.68;4.80;;;19.60;58.10;;;;;;5034916;28;20064;-62
2023/04/13 07:08:46;;;;;;;13.35;5.10;;;19.60;58.00;;;;;;5034936;28;20148;-62
2023/04/13 07:11:13;;;;;;;11.07;5.22;;;19.60;58.30;;;;;;5033227;28;20408;-61
2023/04/13 07:13:39;;;;;;;14.98;4.82;;;19.60;58.40;;;;;;5035010;28;20029;-62
2023/04/13 07:16:07;;;;;;;22.92;5.00;;;19.60;58.30;;;;;;5039497;28;20048;-62
2023/04/13 07:18:33;;;;;;;14.27;4.65;;;19.60;58.50;;;;;;5032351;28;20094;-62
2023/04/13 07:20:58;;;;;;;18.80;5.00;;;19.60;58.50;;;;;;5038606;28;20032;-62
2023/04/13 07:23:24;;;;;;;13.57;4.13;;;19.60;58.40;;;;;;5043239;28;20087;-62
2023/04/13 07:25:49;;;;;;;11.30;3.97;;;19.50;58.50;;;;;;5034092;28;20032;-61
2023/04/13 07:28:15;;;;;;;14.68;4.38;;;19.50;58.50;;;;;;5037898;28;20033;-63
2023/04/13 07:30:44;;;;;;;12.50;4.57;;;19.50;59.10;;;;;;5038266;28;20437;-62
2023/04/13 07:33:10;;;;;;;13.27;3.63;;;19.50;58.50;;;;;;5037506;28;20043;-62
2023/04/13 07:35:36;;;;;;;13.73;3.47;;;19.50;58.20;;;;;;5033879;28;20230;-61
2023/04/13 07:38:02;;;;;;;12.07;4.10;;;19.50;58.10;;;;;;5034406;28;20507;-62
2023/04/13 07:40:27;;;;;;;18.02;2.92;;;19.50;58.00;;;;;;5034853;28;20045;-62
2023/04/13 07:42:52;;;;;;;8.50;2.92;;;19.40;58.00;;;;;;5032120;28;20029;-62
2023/04/13 07:45:19;;;;;;;11.20;2.92;;;19.40;58.00;;;;;;5031120;28;20021;-62
2023/04/13 07:47:45;;;;;;;11.73;3.63;;;19.40;58.00;;;;;;5029456;28;20026;-61
2023/04/13 07:50:12;;;;;;;7.78;2.67;;;19.40;58.00;;;;;;5035308;28;20384;-63
2023/04/13 07:52:37;;;;;;;10.85;3.10;;;19.40;58.10;;;;;;5034136;28;20029;-62
2023/04/13 07:55:04;;;;;;;5.03;2.38;;;19.40;58.10;;;;;;5036147;28;20273;-62
2023/04/13 07:57:30;;;;;;;8.25;2.92;;;19.40;58.10;;;;;;5037085;28;20378;-62
2023/04/13 07:59:55;;;;;;;4.75;2.90;;;19.40;58.10;;;;;;5044890;28;20072;-62
2023/04/13 08:02:21;;;;;;;8.75;3.28;;;19.40;58.10;;;;;;5035500;28;20061;-62
2023/04/13 08:04:47;;;;;;;6.72;2.75;;;19.40;58.10;;;;;;5033833;28;20116;-63
2023/04/13 08:07:12;;;;;;;10.32;3.15;;;19.30;58.10;;;;;;5033577;28;20033;-62
2023/04/13 08:09:39;;;;;;;6.20;2.90;;;19.30;58.10;;;;;;5034301;28;20029;-63
2023/04/13 08:12:07;;;;;;;11.25;2.80;;;19.30;58.20;;;;;;5036206;28;20592;-62
2023/04/13 08:14:33;;;;;;;9.05;2.08;;;19.30;58.10;;;;;;5037246;28;20040;-62
2023/04/13 08:17:00;;;;;;;5.35;2.45;;;19.30;58.20;;;;;;5031454;28;20026;-63
2023/04/13 08:19:26;;;;;;;4.85;2.28;;;19.30;58.20;;;;;;5031077;28;20042;-62
2023/04/13 08:21:52;;;;;;;6.97;2.03;;;19.30;58.20;;;;;;5036910;28;20373;-61
2023/04/13 08:24:19;;;;;;;6.28;2.60;;;19.30;58.20;;;;;;5037236;28;20044;-62
2023/04/13 08:26:45;;;;;;;4.10;2.40;;;19.20;58.20;;;;;;5035736;28;20083;-62
2023/04/13 08:29:10;;;;;;;3.85;1.90;;;19.20;58.20;;;;;;5036494;28;20032;-62
2023/04/13 08:31:36;;;;;;;5.32;2.70;;;19.20;58.20;;;;;;5035223;28;20393;-61
2023/04/13 08:34:03;;;;;;;6.00;2.13;;;19.20;58.20;;;;;;5031887;28;20040;-62
2023/04/13 08:36:29;;;;;;;6.53;2.78;;;19.20;58.20;;;;;;5035208;28;20029;-63
2023/04/13 08:38:54;;;;;;;5.07;2.28;;;19.20;58.20;;;;;;5035632;28;20036;-62
2023/04/13 08:41:21;;;;;;;3.78;1.60;;;19.20;58.20;;;;;;5029902;28;20030;-62
2023/04/13 08:43:48;;;;;;;5.10;2.25;;;19.20;58.20;;;;;;5035231;28;20570;-62
2023/04/13 08:46:21;;;;;;;5.45;2.03;;;19.20;58.30;;;;;;5037736;28;20037;-61
2023/04/13 08:48:48;;;;;;;5.63;2.10;;;19.20;58.30;;;;;;5035521;28;20045;-62
2023/04/13 08:51:14;;;;;;;4.18;2.03;;;19.10;58.20;;;;;;5035963;28;20106;-63
2023/04/13 08:53:40;;;;;;;3.75;1.77;;;19.10;58.30;;;;;;5035836;28;20492;-62
2023/04/13 08:56:12;;;;;;;6.32;2.08;;;19.10;58.20;;;;;;5036963;28;20589;-62
2023/04/13 08:58:41;;;;;;;5.47;1.80;;;19.10;58.20;;;;;;5033539;28;20038;-62
2023/04/13 09:01:12;;;;;;;2.95;1.70;;;19.10;58.20;;;;;;5034260;28;20115;-62
2023/04/13 09:04:00;;;;;;;3.70;2.00;;;19.10;58.20;;;;;;5036262;28;20025;-62
2023/04/13 09:06:34;;;;;;;4.50;1.63;;;19.10;58.20;;;;;;5037813;28;20029;-62
2023/04/13 09:09:04;;;;;;;5.38;1.98;;;19.10;57.90;;;;;;5033217;28;20469;-61
2023/04/13 09:11:30;;;;;;;6.63;2.08;;;19.10;57.80;;;;;;5038630;28;20101;-62
2023/04/13 09:13:56;;;;;;;5.03;1.85;;;19.10;57.80;;;;;;5040039;28;20469;-59
2023/04/13 09:16:21;;;;;;;3.05;1.75;;;19.10;57.80;;;;;;5035639;28;20457;-60
2023/04/13 09:18:51;;;;;;;2.63;1.42;;;19.10;57.90;;;;;;5032374;28;20049;-62
2023/04/13 09:21:17;;;;;;;4.00;1.42;;;19.10;57.80;;;;;;5040899;28;20079;-62
2023/04/13 09:23:56;;;;;;;3.78;1.48;;;19.10;57.80;;;;;;5039329;28;20095;-60
2023/04/13 09:26:22;;;;;;;4.28;1.70;;;19.10;57.90;;;;;;5037751;28;20403;-61
2023/04/13 09:28:51;;;;;;;2.53;1.63;;;19.10;57.90;;;;;;5039264;28;20036;-63
2023/04/13 09:31:17;;;;;;;4.07;1.55;;;19.10;57.90;;;;;;5036990;28;20052;-63
2023/04/13 09:33:47;;;;;;;5.78;2.60;;;19.10;57.90;;;;;;5036698;28;20543;-65
2023/04/13 09:36:15;;;;;;;77.85;24.27;;;19.10;58.10;;;;;;5039379;28;20086;-59
2023/04/13 09:38:45;;;;;;;182.02;68.82;;;19.10;58.30;;;;;;5038634;28;20132;-61
2023/04/13 09:41:11;;;;;;;246.13;101.05;;;19.10;58.90;;;;;;5038853;28;20368;-61
2023/04/13 09:43:37;;;;;;;247.60;105.20;;;19.10;59.50;;;;;;5033925;28;20044;-61
2023/04/13 09:46:15;;;;;;;228.48;98.65;;;19.10;59.90;;;;;;5036263;28;20030;-61
2023/04/13 09:48:41;;;;;;;215.52;89.28;;;19.10;60.30;;;;;;5040461;28;20025;-62
2023/04/13 09:51:07;;;;;;;203.10;85.47;;;19.10;60.40;;;;;;5040336;28;20051;-61
2023/04/13 09:53:45;;;;;;;187.07;78.20;;;19.10;60.30;;;;;;5039218;28;20068;-59
2023/04/13 09:56:10;;;;;;;173.98;74.32;;;19.10;60.30;;;;;;5040300;28;20269;-61
2023/04/13 09:58:44;;;;;;;151.10;65.18;;;19.10;60.20;;;;;;5036369;28;20066;-61
2023/04/13 10:01:10;;;;;;;146.98;60.53;;;19.10;60.40;;;;;;5037664;28;20024;-61
2023/04/13 10:03:37;;;;;;;152.82;60.67;;;19.10;60.40;;;;;;5037538;28;20203;-61
2023/04/13 10:06:06;;;;;;;130.60;55.55;;;19.10;60.30;;;;;;5038583;28;20040;-62
2023/04/13 10:08:32;;;;;;;121.93;52.90;;;19.10;60.50;;;;;;5036644;28;20268;-61
2023/04/13 10:11:00;;;;;;;117.75;49.47;;;19.10;60.40;;;;;;5039772;28;20033;-61
2023/04/13 10:13:40;;;;;;;116.10;47.25;;;19.10;60.40;;;;;;5036541;28;20056;-61
2023/04/13 10:16:42;;;;;;;108.15;45.65;;;19.10;60.30;;;;;;5040120;28;20036;-61
2023/04/13 10:19:14;;;;;;;106.57;43.30;;;19.10;60.10;;;;;;5034579;28;20048;-60
2023/04/13 10:21:43;;;;;;;108.68;41.58;;;19.10;60.00;;;;;;5038937;28;20044;-61
2023/04/13 10:24:12;;;;;;;96.53;40.60;;;19.10;60.10;;;;;;5040477;28;20029;-61
2023/04/13 10:26:39;;;;;;;92.47;39.90;;;19.20;59.80;;;;;;5035758;28;20087;-61
2023/04/13 10:29:07;;;;;;;91.00;37.33;;;19.20;59.70;;;;;;5034377;28;20387;-60
2023/04/13 10:31:45;;;;;;;96.57;37.40;;;19.30;59.40;;;;;;5034611;28;20398;-61
2023/04/13 10:34:28;;;;;;;75.55;34.40;;;19.40;59.00;;;;;;5036793;28;20116;-61
2023/04/13 10:36:57;;;;;;;75.07;34.28;;;19.60;58.60;;;;;;5033239;28;20130;-61
2023/04/13 10:39:28;;;;;;;74.50;31.73;;;19.70;58.20;;;;;;5038090;28;20036;-61
2023/04/13 10:42:07;;;;;;;76.65;32.55;;;19.80;57.90;;;;;;5032833;28;20049;-61
2023/04/13 10:44:50;;;;;;;72.00;31.05;;;19.80;57.60;;;;;;5036175;28;20170;-61
2023/04/13 10:47:19;;;;;;;62.03;29.50;;;19.90;57.40;;;;;;5037390;28;20033;-63
2023/04/13 10:49:46;;;;;;;74.57;31.30;;;20.00;57.20;;;;;;5038897;28;20670;-61
2023/04/13 10:52:12;;;;;;;63.42;28.52;;;20.10;57.10;;;;;;5039278;28;20128;-61
2023/04/13 10:54:40;;;;;;;66.38;27.90;;;20.10;56.90;;;;;;5037362;28;20041;-61
2023/04/13 10:57:08;;;;;;;57.17;26.63;;;20.20;56.80;;;;;;5034222;28;20030;-61
2023/04/13 10:59:48;;;;;;;63.03;27.48;;;20.20;56.70;;;;;;5035331;28;20029;-64
2023/04/13 11:02:15;;;;;;;60.40;26.75;;;20.20;56.60;;;;;;5036547;28;20033;-62
2023/04/13 11:04:42;;;;;;;59.03;26.33;;;20.20;56.50;;;;;;5036430;28;20520;-61
2023/04/13 11:07:25;;;;;;;58.00;25.30;;;20.30;56.60;;;;;;5036590;28;20459;-62
2023/04/13 11:09:56;;;;;;;58.63;23.23;;;20.20;56.60;;;;;;5034072;28;20110;-61
2023/04/13 11:12:21;;;;;;;49.17;21.25;;;20.20;56.60;;;;;;5031371;28;20033;-61
2023/04/13 11:14:47;;;;;;;55.42;20.83;;;20.20;56.60;;;;;;5029485;28;20041;-62
2023/04/13 11:17:15;;;;;;;53.53;22.65;;;20.20;56.60;;;;;;5038368;28;20032;-56
2023/04/13 11:19:52;;;;;;;41.92;19.80;;;20.10;56.70;;;;;;5038164;28;20462;-53
2023/04/13 11:22:21;;;;;;;48.83;20.73;;;20.10;56.70;;;;;;5037116;28;20511;-61
2023/04/13 11:24:47;;;;;;;46.17;18.95;;;20.10;56.80;;;;;;5037103;28;20037;-55
2023/04/13 11:27:21;;;;;;;46.95;20.08;;;20.10;56.90;;;;;;5032729;28;20411;-62
2023/04/13 11:30:04;;;;;;;35.47;17.73;;;20.10;56.80;;;;;;5033789;28;20459;-56
2023/04/13 11:32:35;;;;;;;40.30;18.05;;;20.10;56.90;;;;;;5031985;28;20043;-55
2023/04/13 11:35:07;;;;;;;41.15;18.63;;;20.00;56.90;;;;;;5036045;28;20417;-55
2023/04/13 11:37:40;;;;;;;42.22;18.55;;;20.00;57.00;;;;;;5034058;28;20040;-61
2023/04/13 11:40:19;;;;;;;37.03;17.55;;;19.90;57.00;;;;;;5032225;28;20128;-61
2023/04/13 11:42:46;;;;;;;33.38;16.70;;;19.90;57.00;;;;;;5032847;28;20071;-60
2023/04/13 11:45:15;;;;;;;37.58;17.42;;;19.90;57.10;;;;;;5028599;28;20449;-61
2023/04/13 11:47:42;;;;;;;33.80;18.55;;;19.90;57.20;;;;;;5038647;28;20438;-55
2023/04/13 11:50:09;;;;;;;36.58;15.18;;;19.80;57.20;;;;;;5036064;28;20029;-58
2023/04/13 11:52:35;;;;;;;36.75;15.70;;;19.80;57.30;;;;;;5036205;28;20029;-61
2023/04/13 11:55:05;;;;;;;31.40;14.45;;;19.80;57.40;;;;;;5033321;28;20056;-61
2023/04/13 11:57:34;;;;;;;32.00;15.23;;;19.80;57.40;;;;;;5031957;28;20033;-61
2023/04/13 12:00:00;;;;;;;36.55;14.90;;;19.70;57.40;;;;;;5028702;28;20037;-56
2023/04/13 12:02:27;;;;;;;34.60;14.35;;;19.80;57.50;;;;;;5033388;28;20044;-61
2023/04/13 12:04:53;;;;;;;31.02;14.55;;;19.70;57.40;;;;;;5039168;28;20057;-62
2023/04/13 12:07:19;;;;;;;36.83;14.77;;;19.70;57.50;;;;;;5028214;28;20502;-61
2023/04/13 12:09:46;;;;;;;29.92;14.60;;;19.70;57.50;;;;;;5035949;28;20029;-61
2023/04/13 12:12:20;;;;;;;26.05;13.82;;;19.70;57.60;;;;;;5038125;28;20037;-62
2023/04/13 12:14:56;;;;;;;31.98;14.48;;;19.70;57.60;;;;;;5037581;28;20690;-62
2023/04/13 12:17:28;;;;;;;27.08;13.63;;;19.60;57.60;;;;;;5043112;28;20206;-61
2023/04/13 12:19:55;;;;;;;30.52;12.55;;;19.60;57.60;;;;;;5039509;28;20045;-62
2023/04/13 12:22:21;;;;;;;24.52;12.40;;;19.60;57.60;;;;;;5037258;28;20123;-62
2023/04/13 12:24:46;;;;;;;24.20;12.55;;;19.60;57.80;;;;;;5033223;28;20618;-62
2023/04/13 12:27:12;;;;;;;24.40;11.30;;;19.60;57.70;;;;;;5033529;28;20508;-60
2023/04/13 12:29:40;;;;;;;30.27;12.35;;;19.60;57.80;;;;;;5031868;28;20150;-62
2023/04/13 12:32:12;;;;;;;27.15;12.00;;;19.50;57.80;;;;;;5033809;28;20029;-59
2023/04/13 12:34:42;;;;;;;21.55;10.90;;;19.50;57.80;;;;;;5034805;28;20025;-60
2023/04/13 12:37:10;;;;;;;24.75;10.55;;;19.50;57.80;;;;;;5039717;28;20029;-61
2023/04/13 12:39:35;;;;;;;23.67;10.90;;;19.50;57.80;;;;;;5039688;28;20044;-62
2023/04/13 12:42:01;;;;;;;26.83;10.95;;;19.50;57.80;;;;;;5041076;28;20044;-61
2023/04/13 12:44:26;;;;;;;22.15;10.52;;;19.50;57.80;;;;;;5039091;28;20064;-62